createdAt,value
2023-08-15T00:00:29.253Z,21.10
2023-08-15T00:03:48.685Z,21.09
2023-08-15T00:07:05.364Z,21.03
2023-08-15T00:10:22.152Z,20.94
2023-08-15T00:13:39.505Z,20.92
2023-08-15T00:16:56.046Z,20.91
2023-08-15T00:20:14.634Z,20.91
2023-08-15T00:23:31.305Z,20.88
2023-08-15T00:26:47.951Z,20.84
2023-08-15T00:30:04.727Z,20.82
2023-08-15T00:33:21.307Z,20.78
2023-08-15T00:36:38.064Z,20.75
2023-08-15T00:39:54.833Z,20.74
2023-08-15T00:43:11.731Z,20.72
2023-08-15T00:46:30.065Z,20.74
2023-08-15T00:49:46.940Z,20.79
2023-08-15T00:53:04.379Z,20.83
2023-08-15T00:56:22.109Z,20.75
2023-08-15T00:59:38.829Z,20.61
2023-08-15T01:02:56.002Z,20.61
2023-08-15T01:06:13.393Z,20.60
2023-08-15T01:09:30.943Z,20.60
2023-08-15T01:12:53.819Z,20.57
2023-08-15T01:16:14.337Z,20.48
2023-08-15T01:19:39.136Z,20.45
2023-08-15T01:23:00.379Z,20.44
2023-08-15T01:26:17.146Z,20.35
2023-08-15T01:29:35.102Z,20.33
2023-08-15T01:32:56.012Z,20.27
2023-08-15T01:36:19.183Z,20.23
2023-08-15T01:39:38.795Z,20.24
2023-08-15T01:43:00.005Z,20.23
2023-08-15T01:46:17.538Z,20.24
2023-08-15T01:49:34.445Z,20.16
2023-08-15T01:52:51.074Z,20.11
2023-08-15T01:56:07.594Z,20.07
2023-08-15T01:59:24.310Z,19.97
2023-08-15T02:02:40.879Z,19.94
2023-08-15T02:05:57.548Z,19.93
2023-08-15T02:09:14.600Z,19.94
2023-08-15T02:12:31.110Z,19.90
2023-08-15T02:15:47.729Z,19.82
2023-08-15T02:19:04.718Z,19.75
2023-08-15T02:22:21.323Z,19.69
2023-08-15T02:25:37.912Z,19.70
2023-08-15T02:28:54.703Z,19.76
2023-08-15T02:32:11.803Z,19.82
2023-08-15T02:35:28.428Z,19.80
2023-08-15T02:38:45.150Z,19.71
2023-08-15T02:42:02.252Z,19.67
2023-08-15T02:45:20.325Z,19.71
2023-08-15T02:48:37.019Z,19.67
2023-08-15T02:51:54.962Z,19.60
2023-08-15T02:55:12.914Z,19.56
2023-08-15T02:58:29.679Z,19.50
2023-08-15T03:01:46.304Z,19.48
2023-08-15T03:05:03.020Z,19.39
2023-08-15T03:08:20.059Z,19.33
2023-08-15T03:11:37.167Z,19.29
2023-08-15T03:14:53.878Z,19.28
2023-08-15T03:18:10.869Z,19.27
2023-08-15T03:21:27.579Z,19.14
2023-08-15T03:24:44.913Z,19.11
2023-08-15T03:28:01.558Z,19.12
2023-08-15T03:31:18.947Z,19.11
2023-08-15T03:34:37.306Z,19.07
2023-08-15T03:37:54.177Z,19.05
2023-08-15T03:41:14.447Z,19.03
2023-08-15T03:44:32.177Z,19.05
2023-08-15T03:47:48.820Z,19.04
2023-08-15T03:51:08.871Z,19.06
2023-08-15T03:54:26.658Z,19.06
2023-08-15T03:57:43.465Z,19.00
2023-08-15T04:01:00.727Z,18.95
2023-08-15T04:04:17.981Z,18.96
2023-08-15T04:07:34.771Z,18.99
2023-08-15T04:10:53.111Z,19.00
2023-08-15T04:14:09.879Z,19.07
2023-08-15T04:17:27.225Z,19.16
2023-08-15T04:20:47.490Z,19.20
2023-08-15T04:24:04.117Z,19.26
2023-08-15T04:27:22.209Z,19.31
2023-08-15T04:30:40.354Z,19.39
2023-08-15T04:33:57.086Z,19.48
2023-08-15T04:37:14.040Z,19.52
2023-08-15T04:40:43.399Z,19.60
2023-08-15T04:44:00.337Z,19.61
2023-08-15T04:47:18.196Z,19.66
2023-08-15T04:50:35.191Z,19.78
2023-08-15T04:53:52.921Z,19.88
2023-08-15T04:57:09.737Z,19.96
2023-08-15T05:00:27.147Z,20.01
2023-08-15T05:03:43.675Z,20.08
2023-08-15T05:07:02.092Z,20.10
2023-08-15T05:10:19.760Z,20.14
2023-08-15T05:13:36.560Z,20.25
2023-08-15T05:16:53.225Z,20.36
2023-08-15T05:20:10.902Z,20.47
2023-08-15T05:23:28.633Z,20.55
2023-08-15T05:26:45.364Z,20.66
2023-08-15T05:30:01.978Z,20.77
2023-08-15T05:33:18.541Z,20.87
2023-08-15T05:36:35.205Z,21.00
2023-08-15T05:39:51.681Z,21.14
2023-08-15T05:43:08.396Z,21.27
2023-08-15T05:46:25.069Z,21.39
2023-08-15T05:49:41.614Z,21.50
2023-08-15T05:52:58.285Z,21.60
2023-08-15T05:56:15.099Z,21.73
2023-08-15T05:59:31.587Z,21.88
2023-08-15T06:02:48.526Z,22.05
2023-08-15T06:06:07.661Z,22.28
2023-08-15T06:09:21.883Z,22.37
2023-08-15T06:12:38.323Z,22.56
2023-08-15T06:15:55.024Z,22.67
2023-08-15T06:19:11.707Z,22.87
2023-08-15T06:22:28.314Z,23.05
2023-08-15T06:25:47.196Z,23.23
2023-08-15T06:29:01.427Z,23.58
2023-08-15T06:32:32.209Z,23.85
2023-08-15T06:35:48.846Z,24.06
2023-08-15T06:39:05.474Z,24.24
2023-08-15T06:42:22.164Z,24.38
2023-08-15T06:45:38.902Z,24.54
2023-08-15T06:48:55.503Z,24.66
2023-08-15T06:52:13.642Z,24.77
2023-08-15T06:55:30.505Z,24.91
2023-08-15T06:58:47.128Z,25.10
2023-08-15T07:02:04.261Z,25.20
2023-08-15T07:05:21.060Z,25.43
2023-08-15T07:08:38.265Z,25.64
2023-08-15T07:11:54.833Z,25.80
2023-08-15T07:15:13.038Z,25.90
2023-08-15T07:18:29.845Z,26.11
2023-08-15T07:21:47.673Z,26.48
2023-08-15T07:25:04.418Z,26.73
2023-08-15T07:28:21.116Z,26.93
2023-08-15T07:31:37.643Z,27.19
2023-08-15T07:34:54.081Z,27.58
2023-08-15T07:38:10.815Z,28.19
2023-08-15T07:41:27.506Z,28.52
2023-08-15T07:44:44.385Z,28.81
2023-08-15T07:48:00.805Z,29.08
2023-08-15T07:51:17.894Z,29.38
2023-08-15T07:54:34.451Z,29.56
2023-08-15T07:57:51.624Z,29.81
2023-08-15T08:01:09.202Z,30.21
2023-08-15T08:04:26.378Z,30.75
2023-08-15T08:07:43.326Z,31.04
2023-08-15T08:10:59.951Z,31.45
2023-08-15T08:14:16.579Z,32.12
2023-08-15T08:17:33.475Z,32.75
2023-08-15T08:20:50.512Z,33.14
2023-08-15T08:24:07.060Z,33.75
2023-08-15T08:27:23.739Z,34.13
2023-08-15T08:30:40.329Z,34.43
2023-08-15T08:33:56.915Z,34.46
2023-08-15T08:37:13.732Z,35.14
2023-08-15T08:40:30.534Z,35.69
2023-08-15T08:43:48.280Z,36.31
2023-08-15T08:47:03.378Z,36.40
2023-08-15T08:50:20.810Z,36.65
2023-08-15T08:53:37.629Z,37.04
2023-08-15T08:56:56.621Z,37.20
2023-08-15T09:00:16.064Z,37.52
2023-08-15T09:03:32.777Z,37.50
2023-08-15T09:06:49.540Z,37.40
2023-08-15T09:10:08.107Z,35.82
2023-08-15T09:13:31.878Z,36.59
2023-08-15T09:16:55.932Z,36.19
2023-08-15T09:20:24.266Z,36.47
2023-08-15T09:23:41.910Z,36.37
2023-08-15T09:26:58.720Z,36.27
2023-08-15T09:30:23.771Z,36.47
2023-08-15T09:33:40.924Z,36.20
2023-08-15T09:36:55.242Z,36.00
2023-08-15T09:40:12.959Z,35.74
2023-08-15T09:43:29.546Z,35.26
2023-08-15T09:46:48.228Z,35.13
2023-08-15T09:50:06.460Z,34.26
2023-08-15T09:53:24.281Z,34.81
2023-08-15T09:56:40.803Z,34.89
2023-08-15T09:59:57.417Z,34.62
2023-08-15T10:03:20.077Z,34.27
2023-08-15T10:06:36.981Z,34.50
2023-08-15T10:09:54.657Z,34.43
2023-08-15T10:13:13.377Z,33.98
2023-08-15T10:16:30.646Z,33.85
2023-08-15T10:19:52.119Z,34.11
2023-08-15T10:23:11.596Z,33.70
2023-08-15T10:26:29.089Z,33.71
2023-08-15T10:30:01.772Z,33.57
2023-08-15T10:33:27.112Z,33.72
2023-08-15T10:36:45.854Z,33.70
2023-08-15T10:40:20.432Z,33.63
2023-08-15T10:43:38.416Z,33.68
2023-08-15T10:46:55.613Z,33.53
2023-08-15T10:50:12.927Z,33.71
2023-08-15T10:53:31.188Z,33.38
2023-08-15T10:56:49.642Z,33.35
2023-08-15T11:00:07.139Z,33.26
2023-08-15T11:03:24.898Z,33.07
2023-08-15T11:06:39.308Z,33.00
2023-08-15T11:09:58.381Z,33.11
2023-08-15T11:13:16.840Z,33.19
2023-08-15T11:16:34.063Z,33.33
2023-08-15T11:19:51.293Z,33.12
2023-08-15T11:23:09.287Z,33.13
2023-08-15T11:26:25.954Z,32.93
2023-08-15T11:29:43.188Z,32.90
2023-08-15T11:32:59.913Z,32.99
2023-08-15T11:36:17.654Z,32.33
2023-08-15T11:39:34.281Z,32.55
2023-08-15T11:42:52.491Z,32.53
2023-08-15T11:46:11.782Z,32.43
2023-08-15T11:49:31.004Z,32.25
2023-08-15T11:52:54.124Z,31.96
2023-08-15T11:56:10.517Z,31.99
2023-08-15T11:59:29.148Z,31.97
2023-08-15T12:02:49.989Z,31.97
2023-08-15T12:06:10.578Z,31.95
2023-08-15T12:09:30.766Z,31.94
2023-08-15T12:12:54.375Z,31.82
2023-08-15T12:16:13.497Z,31.84
2023-08-15T12:19:30.179Z,31.84
2023-08-15T12:22:47.920Z,31.79
2023-08-15T12:26:04.528Z,31.75
2023-08-15T12:29:21.055Z,31.72
2023-08-15T12:32:39.644Z,31.66
2023-08-15T12:35:56.252Z,31.69
2023-08-15T12:39:13.283Z,31.60
2023-08-15T12:42:30.013Z,31.56
2023-08-15T12:45:46.642Z,31.56
2023-08-15T12:49:04.482Z,31.58
2023-08-15T12:52:21.249Z,31.57
2023-08-15T12:55:38.175Z,31.51
2023-08-15T12:58:54.964Z,31.41
2023-08-15T13:02:11.777Z,31.40
2023-08-15T13:05:28.679Z,31.36
2023-08-15T13:08:45.418Z,31.21
2023-08-15T13:12:02.232Z,31.28
2023-08-15T13:15:19.702Z,31.16
2023-08-15T13:18:36.255Z,31.16
2023-08-15T13:21:52.926Z,31.07
2023-08-15T13:25:09.518Z,30.98
2023-08-15T13:28:27.080Z,30.95
2023-08-15T13:31:43.676Z,30.82
2023-08-15T13:35:00.193Z,30.80
2023-08-15T13:38:16.857Z,30.73
2023-08-15T13:41:33.580Z,30.73
2023-08-15T13:44:50.117Z,30.76
2023-08-15T13:48:06.797Z,30.81
2023-08-15T13:51:29.559Z,30.80
2023-08-15T13:54:46.296Z,30.80
2023-08-15T13:58:02.859Z,30.66
2023-08-15T14:01:20.703Z,30.69
2023-08-15T14:04:38.372Z,30.71
2023-08-15T14:07:54.972Z,30.71
2023-08-15T14:11:13.590Z,30.60
2023-08-15T14:14:30.296Z,30.58
2023-08-15T14:17:46.897Z,30.53
2023-08-15T14:21:03.632Z,30.54
2023-08-15T14:24:22.396Z,30.49
2023-08-15T14:27:38.988Z,30.50
2023-08-15T14:30:59.347Z,30.42
2023-08-15T14:34:16.539Z,30.36
2023-08-15T14:37:33.041Z,30.30
2023-08-15T14:40:49.818Z,30.25
2023-08-15T14:44:07.139Z,30.17
2023-08-15T14:47:26.542Z,30.13
2023-08-15T14:50:43.106Z,30.18
2023-08-15T14:53:59.724Z,30.15
2023-08-15T14:57:16.444Z,30.15
2023-08-15T15:00:33.627Z,30.18
2023-08-15T15:03:50.257Z,30.12
2023-08-15T15:07:06.800Z,30.07
2023-08-15T15:10:23.640Z,30.06
2023-08-15T15:13:40.375Z,30.03
2023-08-15T15:16:57.873Z,29.98
2023-08-15T15:20:17.386Z,29.92
2023-08-15T15:23:34.082Z,29.89
2023-08-15T15:26:51.147Z,29.85
2023-08-15T15:30:09.613Z,29.85
2023-08-15T15:33:27.840Z,29.85
2023-08-15T15:36:44.423Z,29.84
2023-08-15T15:40:01.150Z,29.83
2023-08-15T15:43:17.888Z,29.82
2023-08-15T15:46:49.009Z,29.81
2023-08-15T15:49:52.867Z,29.81
2023-08-15T15:53:10.052Z,29.76
2023-08-15T15:56:26.637Z,29.72
2023-08-15T15:59:43.297Z,29.70
2023-08-15T16:02:59.896Z,29.68
2023-08-15T16:06:17.266Z,29.65
2023-08-15T16:09:33.988Z,29.62
2023-08-15T16:12:52.765Z,29.62
2023-08-15T16:16:09.169Z,29.53
2023-08-15T16:19:28.618Z,29.51
2023-08-15T16:22:48.024Z,29.51
2023-08-15T16:26:07.066Z,29.51
2023-08-15T16:29:26.574Z,29.50
2023-08-15T16:32:43.612Z,29.50
2023-08-15T16:36:00.379Z,29.47
2023-08-15T16:39:17.160Z,29.45
2023-08-15T16:42:36.318Z,29.44
2023-08-15T16:45:54.196Z,29.42
2023-08-15T16:49:10.919Z,29.41
2023-08-15T16:52:29.861Z,29.38
2023-08-15T16:55:47.579Z,29.36
2023-08-15T16:59:04.358Z,29.35
2023-08-15T17:02:22.164Z,29.32
2023-08-15T17:05:39.622Z,29.29
2023-08-15T17:08:56.249Z,29.27
2023-08-15T17:12:14.058Z,29.24
2023-08-15T17:15:30.653Z,29.21
2023-08-15T17:18:47.251Z,29.17
2023-08-15T17:22:03.873Z,29.13
2023-08-15T17:25:21.168Z,29.10
2023-08-15T17:28:38.031Z,29.05
2023-08-15T17:31:54.604Z,29.03
2023-08-15T17:35:14.554Z,28.99
2023-08-15T17:38:31.157Z,28.93
2023-08-15T17:41:47.664Z,28.91
2023-08-15T17:45:04.237Z,28.85
2023-08-15T17:48:20.750Z,28.82
2023-08-15T17:51:37.743Z,28.79
2023-08-15T17:54:54.380Z,28.73
2023-08-15T17:58:11.639Z,28.69
2023-08-15T18:01:29.875Z,28.62
2023-08-15T18:04:46.728Z,28.56
2023-08-15T18:08:03.432Z,28.39
2023-08-15T18:11:20.040Z,28.33
2023-08-15T18:14:36.729Z,28.32
2023-08-15T18:17:54.134Z,28.22
2023-08-15T18:21:11.517Z,28.19
2023-08-15T18:24:28.520Z,28.13
2023-08-15T18:27:46.265Z,28.01
2023-08-15T18:31:02.869Z,27.93
2023-08-15T18:34:19.675Z,27.96
2023-08-15T18:37:36.303Z,27.93
2023-08-15T18:40:53.213Z,27.74
2023-08-15T18:44:10.135Z,27.39
2023-08-15T18:47:26.702Z,27.09
2023-08-15T18:50:43.622Z,26.88
2023-08-15T18:54:00.282Z,26.78
2023-08-15T18:57:16.930Z,26.56
2023-08-15T19:00:34.454Z,26.37
2023-08-15T19:03:51.269Z,26.35
2023-08-15T19:07:08.079Z,26.35
2023-08-15T19:10:24.988Z,26.43
2023-08-15T19:13:41.666Z,26.26
2023-08-15T19:16:58.446Z,26.07
2023-08-15T19:20:17.647Z,25.88
2023-08-15T19:23:34.173Z,25.66
2023-08-15T19:26:50.852Z,25.52
2023-08-15T19:30:07.703Z,25.44
2023-08-15T19:33:24.255Z,25.34
2023-08-15T19:36:42.789Z,25.22
2023-08-15T19:39:57.008Z,25.08
2023-08-15T19:43:13.448Z,24.99
2023-08-15T19:46:30.074Z,24.91
2023-08-15T19:49:48.276Z,25.01
2023-08-15T19:53:04.854Z,25.04
2023-08-15T19:56:21.490Z,25.07
2023-08-15T19:59:38.063Z,25.01
2023-08-15T20:02:54.662Z,25.03
2023-08-15T20:06:11.592Z,25.13
2023-08-15T20:09:28.377Z,25.27
2023-08-15T20:12:45.018Z,25.37
2023-08-15T20:16:04.318Z,25.28
2023-08-15T20:19:21.092Z,25.25
2023-08-15T20:22:37.625Z,25.31
2023-08-15T20:25:54.498Z,25.40
2023-08-15T20:29:11.527Z,25.32
2023-08-15T20:32:28.791Z,25.33
2023-08-15T20:35:46.367Z,25.35
2023-08-15T20:39:03.048Z,25.34
2023-08-15T20:42:21.257Z,25.27
2023-08-15T20:45:38.172Z,25.14
2023-08-15T20:48:55.111Z,24.94
2023-08-15T20:52:12.179Z,24.75
2023-08-15T20:55:29.793Z,24.63
2023-08-15T20:58:46.307Z,24.44
2023-08-15T21:02:03.348Z,24.32
2023-08-15T21:05:20.989Z,24.08
2023-08-15T21:08:37.513Z,24.13
2023-08-15T21:11:54.166Z,24.18
2023-08-15T21:15:11.380Z,24.15
2023-08-15T21:18:28.140Z,24.04
2023-08-15T21:21:44.663Z,23.86
2023-08-15T21:25:01.943Z,23.70
2023-08-15T21:28:18.687Z,23.55
2023-08-15T21:31:37.696Z,23.52
2023-08-15T21:34:54.390Z,23.52
2023-08-15T21:38:11.087Z,23.47
2023-08-15T21:41:27.619Z,23.44
2023-08-15T21:44:44.138Z,23.39
2023-08-15T21:48:00.750Z,23.37
2023-08-15T21:51:17.366Z,23.34
2023-08-15T21:54:34.087Z,23.35
2023-08-15T21:57:50.576Z,23.25
2023-08-15T22:01:07.181Z,23.18
2023-08-15T22:04:23.746Z,23.18
2023-08-15T22:07:40.418Z,23.20
2023-08-15T22:10:57.486Z,23.19
2023-08-15T22:14:14.312Z,23.21
2023-08-15T22:17:39.345Z,23.20
2023-08-15T22:20:49.114Z,23.09
2023-08-15T22:24:05.645Z,23.08
2023-08-15T22:27:22.726Z,23.12
2023-08-15T22:30:39.719Z,23.04
2023-08-15T22:33:56.344Z,22.98
2023-08-15T22:37:12.975Z,23.06
2023-08-15T22:40:29.815Z,23.04
2023-08-15T22:43:46.365Z,23.05
2023-08-15T22:47:02.896Z,22.92
2023-08-15T22:50:22.219Z,22.90
2023-08-15T22:53:41.718Z,22.92
2023-08-15T22:56:58.226Z,22.90
2023-08-15T23:00:19.304Z,22.91
2023-08-15T23:03:35.967Z,22.87
2023-08-15T23:06:52.818Z,22.87
2023-08-15T23:10:09.781Z,22.90
2023-08-15T23:13:26.509Z,22.84
2023-08-15T23:16:43.196Z,22.81
2023-08-15T23:20:00.018Z,22.80
2023-08-15T23:23:16.950Z,22.81
2023-08-15T23:26:33.492Z,22.79
2023-08-15T23:29:50.908Z,22.78
2023-08-15T23:33:07.758Z,22.62
2023-08-15T23:36:24.335Z,22.61
2023-08-15T23:39:40.944Z,22.66
2023-08-15T23:42:57.477Z,22.70
2023-08-15T23:46:14.688Z,22.62
2023-08-15T23:49:31.344Z,22.61
2023-08-15T23:52:48.231Z,22.62
2023-08-15T23:56:05.074Z,22.61
2023-08-15T23:59:21.592Z,22.53
